Weather History for KS32 - October, 2012

Change the Weather History Date:

Tuesday, October 2, 2012

  Actual Average (KJMS) Record (KJMS)
Temperature  
Mean Temperature 56 °F 50 °F  
Max Temperature 77 °F 63 °F 88 °F (1914)
Min Temperature 35 °F 38 °F 18 °F (1936)
Degree Days  
Heating Degree Days 9 15  
Month to date heating degree days 29  
Since 1 July heating degree days 347  
Cooling Degree Days 0 0  
Month to date cooling degree days 0  
Year to date cooling degree days 445  
Growing Degree Days 6 (Base 50)    
Moisture  
Dew Point 32 °F    
Average Humidity 46    
Maximum Humidity 76    
Minimum Humidity 19    
Precipitation  
Precipitation 0.00 in 0.06 in 0.81 in (1994)
Month to date precipitation 0.12  
Year to date precipitation 16.31  
Sea Level Pressure  
Sea Level Pressure 29.76 in    
Wind  
Wind Speed 13 mph (SW)    
Max Wind Speed 34 mph    
Max Gust Speed 46 mph    
Visibility 9 miles    
Events      
T = Trace of Precipitation, MM = Missing Value Source: NWS Daily Summary

Daily Weather History Graph

Daily Weather History Graph

Search for Another Location

Airport or City:

Trip Planner

Search our weather history database for the weather conditions in past years. The results will help you decide how hot, cold, wet, or windy it might be!

Date:

Astronomy

Oct. 02, 2012 Rise Set
Actual Time 7:33 AM CDT 7:08 PM CDT
Civil Twilight 7:02 AM CDT 7:39 PM CDT
Nautical Twilight 6:27 AM CDT 8:14 PM CDT
Astronomical Twilight 5:51 AM CDT 8:50 PM CDT
Moon 8:07 PM CDT (10/2) 10:15 AM CDT (10/2)
Length of Visible Light 12h 36m
Length of Day
11h 35m
Waning Gibbous, 94% of the Moon is Illuminated
Oct 2
Waning Gibbous
Oct 8
Last Quarter
Oct 15
New
Oct 21
First Quarter
Oct 29
Full

Hourly Weather History & Observations

Time (CDT) Temp. Windchill Dew Point Humidity Pressure Visibility Wind Dir Wind Speed Gust Speed Precip Events Conditions
12:15 AM 35.6 °F 30.7 °F 26.6 °F 70% 29.95 in 10.0 mi South 5.8 mph - N/A   Clear
12:35 AM 37.4 °F 32.1 °F 28.4 °F 70% 29.94 in 10.0 mi South 6.9 mph - N/A   Clear
12:55 AM 35.6 °F 29.2 °F 28.4 °F 75% 29.92 in 10.0 mi South 8.1 mph - N/A   Clear
1:35 AM 35.6 °F 29.2 °F 28.4 °F 75% 29.91 in 10.0 mi South 8.1 mph - N/A   Clear
1:55 AM 37.4 °F 30.8 °F 28.4 °F 70% 29.90 in 10.0 mi South 9.2 mph - N/A   Clear
2:15 AM 37.4 °F 30.8 °F 28.4 °F 70% 29.89 in 10.0 mi South 9.2 mph - N/A   Clear
2:35 AM 37.4 °F 30.3 °F 28.4 °F 70% 29.88 in 10.0 mi South 10.4 mph - N/A   Clear
2:55 AM 37.4 °F 31.4 °F 28.4 °F 70% 29.88 in 10.0 mi South 8.1 mph - N/A   Clear
3:15 AM 37.4 °F 30.8 °F 28.4 °F 70% 29.87 in 10.0 mi South 9.2 mph - N/A   Clear
3:35 AM 35.6 °F 28.0 °F 28.4 °F 75% 29.86 in 10.0 mi South 10.4 mph - N/A   Clear
3:55 AM 39.2 °F 33.6 °F 30.2 °F 70% 29.86 in 10.0 mi South 8.1 mph - N/A   Clear
4:15 AM 39.2 °F 32.5 °F 32.0 °F 75% 29.85 in 10.0 mi South 10.4 mph - N/A   Clear
4:35 AM 41.0 °F 34.7 °F 32.0 °F 70% 29.84 in 10.0 mi South 10.4 mph - N/A   Clear
4:55 AM 41.0 °F 33.5 °F 30.2 °F 65% 29.83 in 10.0 mi South 13.8 mph - N/A   Clear
5:15 AM 41.0 °F 33.5 °F 30.2 °F 65% 29.83 in 10.0 mi South 13.8 mph - N/A   Clear
5:35 AM 41.0 °F 34.3 °F 28.4 °F 61% 29.83 in 10.0 mi South 11.5 mph - N/A   Clear
5:55 AM 42.8 °F 36.2 °F 28.4 °F 57% 29.82 in 10.0 mi South 12.7 mph - N/A   Clear
6:15 AM 42.8 °F 35.8 °F 28.4 °F 57% 29.81 in 10.0 mi South 13.8 mph - N/A   Clear
6:35 AM 44.6 °F 38.1 °F 28.4 °F 53% 29.80 in 10.0 mi South 13.8 mph - N/A   Clear
6:55 AM 44.6 °F 37.4 °F 28.4 °F 53% 29.79 in 10.0 mi South 16.1 mph - N/A   Clear
7:15 AM 44.6 °F 37.8 °F 26.6 °F 49% 29.79 in 10.0 mi South 15.0 mph - N/A   Clear
7:35 AM 46.4 °F 39.0 °F 26.6 °F 46% 29.77 in 10.0 mi South 19.6 mph 26.5 mph N/A   Clear
7:55 AM 48.2 °F - 26.6 °F 43% 29.77 in 10.0 mi South 17.3 mph - N/A   Clear
8:15 AM 48.2 °F - 26.6 °F 43% 29.75 in 10.0 mi South 20.7 mph 28.8 mph N/A   Clear
8:35 AM 50.0 °F - 26.6 °F 40% 29.75 in 10.0 mi South 20.7 mph 26.5 mph N/A   Clear
8:55 AM 53.6 °F - 26.6 °F 35% 29.74 in 7.0 mi SSW 23.0 mph 27.6 mph N/A   Clear
9:15 AM 53.6 °F - 26.6 °F 35% 29.73 in 10.0 mi South 24.2 mph 32.2 mph N/A   Clear
9:35 AM 55.4 °F - 26.6 °F 33% 29.72 in 10.0 mi South 23.0 mph 32.2 mph N/A   Clear
9:55 AM 57.2 °F - 26.6 °F 31% 29.71 in 10.0 mi South 23.0 mph 32.2 mph N/A   Clear
10:15 AM 59.0 °F - 26.6 °F 29% 29.70 in 5.0 mi South 27.6 mph 40.3 mph N/A   Haze
10:35 AM 60.8 °F - 26.6 °F 27% 29.68 in 5.0 mi South 31.1 mph 41.4 mph N/A   Haze
10:55 AM 62.6 °F - 28.4 °F 27% 29.68 in 7.0 mi South 31.1 mph 39.1 mph N/A   Clear
11:15 AM 64.4 °F - 28.4 °F 26% 29.67 in 3.0 mi SSW 33.4 mph 46.0 mph N/A   Haze
11:35 AM 64.4 °F - 28.4 °F 26% 29.67 in 3.0 mi SSW 34.5 mph 46.0 mph N/A   Haze
11:55 AM 66.2 °F - 28.4 °F 24% 29.68 in 5.0 mi SSW 26.5 mph 42.6 mph N/A   Haze
12:15 PM 68.0 °F - 28.4 °F 23% 29.66 in 8.0 mi SSW 29.9 mph 42.6 mph N/A   Clear
12:35 PM 68.0 °F - 30.2 °F 24% 29.65 in 8.0 mi SSW 28.8 mph 40.3 mph N/A   Clear
12:55 PM 69.8 °F - 30.2 °F 23% 29.67 in 10.0 mi SSW 28.8 mph 38.0 mph N/A   Clear
1:15 PM 71.6 °F - 32.0 °F 23% 29.67 in 10.0 mi SSW 27.6 mph 33.4 mph N/A   Clear
1:35 PM 73.4 °F - 32.0 °F 22% 29.66 in 10.0 mi SW 23.0 mph 32.2 mph N/A   Clear
1:55 PM 75.2 °F - 32.0 °F 21% 29.65 in 10.0 mi SSW 20.7 mph 27.6 mph N/A   Clear
2:15 PM 75.2 °F - 32.0 °F 21% 29.65 in 10.0 mi SW 19.6 mph 29.9 mph N/A   Clear
2:35 PM 77.0 °F - 32.0 °F 19% 29.65 in 10.0 mi WSW 19.6 mph 28.8 mph N/A   Clear
3:35 PM 77.0 °F - 35.6 °F 22% 29.66 in 10.0 mi West 18.4 mph 21.9 mph N/A   Clear
3:55 PM 77.0 °F - 35.6 °F 22% 29.66 in 10.0 mi WSW 11.5 mph 21.9 mph N/A   Clear
4:15 PM 77.0 °F - 35.6 °F 22% 29.66 in 10.0 mi WNW 15.0 mph 23.0 mph N/A   Clear
4:35 PM 75.2 °F - 35.6 °F 24% 29.66 in 10.0 mi West 13.8 mph 25.3 mph N/A   Clear
4:55 PM 75.2 °F - 35.6 °F 24% 29.66 in 10.0 mi West 12.7 mph 18.4 mph N/A   Clear
5:15 PM 75.2 °F - 35.6 °F 24% 29.66 in 10.0 mi West 12.7 mph 16.1 mph N/A   Clear
5:35 PM 75.2 °F - 35.6 °F 24% 29.67 in 10.0 mi West 9.2 mph - N/A   Clear
5:55 PM 73.4 °F - 37.4 °F 27% 29.68 in 10.0 mi NW 13.8 mph - N/A   Clear
6:15 PM 71.6 °F - 37.4 °F 29% 29.69 in 10.0 mi NNW 9.2 mph - N/A   Clear
6:35 PM 69.8 °F - 39.2 °F 33% 29.69 in 10.0 mi NNW 10.4 mph - N/A   Clear
6:55 PM 66.2 °F - 39.2 °F 37% 29.71 in 10.0 mi NNW 11.5 mph - N/A   Clear
7:15 PM 64.4 °F - 41.0 °F 42% 29.72 in 10.0 mi NNW 8.1 mph - N/A   Clear
7:35 PM 60.8 °F - 41.0 °F 48% 29.73 in 10.0 mi NNW 6.9 mph - N/A   Clear
7:55 PM 57.2 °F - 41.0 °F 55% 29.73 in 10.0 mi NNW 3.5 mph - N/A   Clear
8:15 PM 55.4 °F - 39.2 °F 54% 29.74 in 10.0 mi NW 4.6 mph - N/A   Clear
8:35 PM 51.8 °F - 37.4 °F 58% 29.75 in 10.0 mi Calm Calm - N/A   Clear
8:55 PM 57.2 °F - 39.2 °F 51% 29.76 in 10.0 mi NW 8.1 mph - N/A   Clear
9:15 PM 57.2 °F - 39.2 °F 51% 29.77 in 10.0 mi NNW 3.5 mph - N/A   Clear
9:55 PM 50.0 °F - 37.4 °F 62% 29.78 in 10.0 mi Calm Calm - N/A   Clear
10:15 PM 51.8 °F - 39.2 °F 62% 29.78 in 9.0 mi NW 3.5 mph - N/A   Clear
10:35 PM 48.2 °F - 37.4 °F 66% 29.79 in 10.0 mi NNW 3.5 mph - N/A   Clear
10:55 PM 48.2 °F - 39.2 °F 71% 29.79 in 10.0 mi NW 6.9 mph - N/A   Clear
11:15 PM 42.8 °F 41.1 °F 35.6 °F 76% 29.79 in 10.0 mi South 3.5 mph - N/A   Clear
11:35 PM 46.4 °F 45.2 °F 37.4 °F 71% 29.80 in 10.0 mi West 3.5 mph - N/A   Clear
11:55 PM 44.6 °F - 37.4 °F 76% 29.80 in 10.0 mi Calm Calm - N/A   Clear